Time;durP1;ratioP1;P1;durP2;ratioP2;P2;SDS_P1;SDS_P2;PMS_P1;PMS_P2;Temp;Humidity;BMP_temperature;BMP_pressure;BME280_temperature;BME280_humidity;BME280_pressure;Samples;Min_cycle;Max_cycle;Signal;HPM_P1;HPM_P2
2022/11/25 00:01:48;;;;;;;47.50;44.42;;;;;;;6.23;100.00;100715.63;5015068;28;20049;-87
2022/11/25 00:04:14;;;;;;;47.53;44.58;;;;;;;6.62;100.00;100720.72;5014336;28;20380;-85
2022/11/25 00:06:43;;;;;;;42.00;39.47;;;;;;;7.39;100.00;100725.66;5013029;28;20042;-84
2022/11/25 00:09:12;;;;;;;40.42;37.92;;;;;;;6.54;100.00;100724.28;5009510;28;20125;-86
2022/11/25 00:11:40;;;;;;;45.00;42.55;;;;;;;6.73;100.00;100730.03;5014390;28;20052;-83
2022/11/25 00:14:11;;;;;;;52.33;49.13;;;;;;;6.38;100.00;100721.78;5009876;28;20054;-85
2022/11/25 00:16:37;;;;;;;46.42;43.63;;;;;;;6.29;100.00;100736.03;5005467;28;20442;-85
2022/11/25 00:19:04;;;;;;;39.70;37.22;;;;;;;6.18;100.00;100734.66;5013616;28;20093;-87
2022/11/25 00:21:34;;;;;;;42.47;39.85;;;;;;;6.37;100.00;100733.34;5014183;28;20038;-85
2022/11/25 00:24:04;;;;;;;42.33;39.63;;;;;;;6.40;100.00;100736.44;5007085;28;20038;-84
2022/11/25 00:26:32;;;;;;;42.00;39.20;;;;;;;6.92;100.00;100733.97;5008118;28;20050;-85
2022/11/25 00:29:01;;;;;;;39.72;37.33;;;;;;;6.60;100.00;100733.31;5013806;28;20057;-85
2022/11/25 00:31:29;;;;;;;49.83;46.70;;;;;;;6.55;100.00;100736.47;5010076;28;20049;-86
2022/11/25 00:33:57;;;;;;;51.92;48.83;;;;;;;6.57;100.00;100731.03;5011198;28;20050;-86
2022/11/25 00:36:26;;;;;;;51.33;48.45;;;;;;;6.25;100.00;100740.03;5014198;28;20440;-85
2022/11/25 00:38:54;;;;;;;44.30;41.50;;;;;;;6.18;100.00;100738.09;5009655;28;20065;-85
2022/11/25 00:46:53;;;;;;;54.50;51.30;;;;;;;6.12;100.00;100746.72;5013820;28;20045;-84
2022/11/25 00:49:20;;;;;;;55.15;51.85;;;;;;;6.01;100.00;100739.22;5015184;28;20046;-84
2022/11/25 00:51:47;;;;;;;48.90;45.67;;;;;;;5.95;100.00;100748.63;5012290;28;20116;-86
2022/11/25 00:54:14;;;;;;;48.13;45.33;;;;;;;6.08;100.00;100753.34;5013442;28;20054;-85
2022/11/25 00:56:42;;;;;;;52.55;48.45;;;;;;;6.43;100.00;100751.91;5012203;28;20080;-84
2022/11/25 00:59:09;;;;;;;50.17;47.08;;;;;;;6.02;100.00;100751.41;5015126;28;20060;-85
2022/11/25 01:01:36;;;;;;;47.05;44.15;;;;;;;6.08;100.00;100753.34;5139864;23;20065;-87
2022/11/25 01:04:04;;;;;;;54.45;51.15;;;;;;;6.71;100.00;100753.97;5034455;28;20119;-85
2022/11/25 01:06:31;;;;;;;49.15;46.15;;;;;;;6.26;100.00;100753.03;5032206;28;20055;-84
2022/11/25 01:08:58;;;;;;;56.72;53.33;;;;;;;5.87;100.00;100768.91;5033969;28;20115;-83
2022/11/25 01:11:25;;;;;;;54.67;51.28;;;;;;;5.89;100.00;100767.75;5034150;28;20041;-85
2022/11/25 01:13:57;;;;;;;43.20;40.42;;;;;;;5.99;100.00;100761.47;5033064;28;20183;-84
2022/11/25 01:16:24;;;;;;;50.60;46.95;;;;;;;5.67;100.00;100764.09;5031593;28;20497;-84
2022/11/25 01:18:52;;;;;;;46.75;43.80;;;;;;;5.73;100.00;100757.31;5028935;28;20481;-84
2022/11/25 01:21:20;;;;;;;47.40;44.40;;;;;;;5.74;100.00;100767.66;5033090;28;20050;-86
2022/11/25 01:23:48;;;;;;;47.08;44.08;;;;;;;5.79;100.00;100769.78;5029357;28;20128;-85
2022/11/25 01:26:18;;;;;;;45.50;42.70;;;;;;;6.10;100.00;100766.34;5033272;28;20057;-84
2022/11/25 01:28:46;;;;;;;50.55;46.95;;;;;;;5.80;100.00;100768.78;5027618;28;20045;-85
2022/11/25 01:31:16;;;;;;;57.20;53.80;;;;;;;5.73;100.00;100768.66;5026944;28;20049;-87
2022/11/25 01:33:43;;;;;;;48.33;45.17;;;;;;;5.66;100.00;100769.56;5030725;28;20473;-85
2022/11/25 01:36:12;;;;;;;48.00;45.00;;;;;;;5.64;100.00;100768.88;5028894;28;20049;-85
2022/11/25 01:38:40;;;;;;;46.90;43.92;;;;;;;5.73;100.00;100773.94;5030376;28;20591;-85
2022/11/25 01:41:08;;;;;;;46.30;43.30;;;;;;;5.48;100.00;100767.16;5029348;28;20118;-84
2022/11/25 01:43:36;;;;;;;49.70;46.40;;;;;;;5.54;100.00;100763.84;5031915;28;20108;-85
2022/11/25 01:46:08;;;;;;;43.78;40.78;;;;;;;5.49;100.00;100763.53;5031229;28;20126;-84
2022/11/25 01:48:42;;;;;;;43.50;40.30;;;;;;;5.51;100.00;100767.63;5029072;28;20103;-87
2022/11/25 01:51:19;;;;;;;51.30;47.97;;;;;;;5.43;100.00;100770.28;5033132;28;20477;-85
2022/11/25 01:53:46;;;;;;;51.05;47.72;;;;;;;5.63;100.00;100765.44;5032106;28;20061;-85
2022/11/25 01:56:14;;;;;;;50.35;47.05;;;;;;;5.71;100.00;100761.94;5028741;28;20052;-85
2022/11/25 01:58:43;;;;;;;48.10;44.92;;;;;;;5.64;100.00;100776.78;5031455;28;20104;-85
2022/11/25 02:01:10;;;;;;;52.05;48.63;;;;;;;5.62;100.00;100766.41;5031039;28;20057;-84
2022/11/25 02:03:43;;;;;;;53.45;49.95;;;;;;;5.61;100.00;100762.16;5025949;28;20096;-85
2022/11/25 02:06:15;;;;;;;50.80;47.55;;;;;;;5.63;100.00;100770.72;5026053;28;20049;-85
2022/11/25 02:08:46;;;;;;;47.47;44.67;;;;;;;6.13;100.00;100772.09;5033581;28;20045;-87
2022/11/25 02:11:16;;;;;;;51.92;48.72;;;;;;;6.15;100.00;100764.81;5031771;28;20049;-85
2022/11/25 02:13:43;;;;;;;52.38;48.45;;;;;;;6.16;100.00;100768.28;5031816;28;20367;-85
2022/11/25 02:16:09;;;;;;;49.47;46.30;;;;;;;6.01;100.00;100760.31;5029547;28;20379;-85
2022/11/25 02:18:36;;;;;;;46.55;43.47;;;;;;;5.71;100.00;100768.00;5030432;28;20088;-86
2022/11/25 02:21:05;;;;;;;49.70;46.25;;;;;;;6.01;100.00;100770.84;5031979;28;20491;-87
2022/11/25 02:23:39;;;;;;;47.78;44.80;;;;;;;5.76;100.00;100778.06;5023975;28;20448;-85
2022/11/25 02:26:08;;;;;;;53.50;50.10;;;;;;;5.84;100.00;100775.38;5030157;28;20056;-84
2022/11/25 02:28:35;;;;;;;55.45;52.05;;;;;;;6.17;100.00;100772.53;5030591;28;20082;-86
2022/11/25 02:31:01;;;;;;;51.50;48.13;;;;;;;5.79;100.00;100779.53;5027966;28;20041;-86
2022/11/25 02:33:28;;;;;;;48.45;45.35;;;;;;;5.92;100.00;100777.94;5029415;28;20060;-85
2022/11/25 02:35:58;;;;;;;48.20;45.10;;;;;;;5.85;100.00;100773.56;5023578;28;20042;-87
2022/11/25 02:38:38;;;;;;;57.35;53.83;;;;;;;5.88;100.00;100779.31;5026308;28;20048;-84
2022/11/25 02:41:12;;;;;;;50.58;47.00;;;;;;;5.88;100.00;100781.94;5031731;28;20142;-84
2022/11/25 02:43:39;;;;;;;60.05;56.10;;;;;;;5.62;100.00;100786.69;5026512;28;20049;-84
2022/11/25 02:46:09;;;;;;;52.08;48.75;;;;;;;6.57;100.00;100784.63;5030031;28;20045;-84
2022/11/25 02:48:38;;;;;;;56.47;53.03;;;;;;;6.00;100.00;100798.22;5026330;28;20058;-85
2022/11/25 02:51:05;;;;;;;49.05;45.85;;;;;;;5.97;100.00;100798.56;5036407;28;20045;-85
2022/11/25 02:53:32;;;;;;;52.78;49.47;;;;;;;6.16;100.00;100792.00;5034510;28;20444;-85
2022/11/25 02:55:59;;;;;;;48.13;45.05;;;;;;;5.85;100.00;100792.84;5031922;28;20396;-84
2022/11/25 02:58:27;;;;;;;50.40;47.33;;;;;;;6.46;100.00;100797.41;5034764;28;20101;-86
2022/11/25 03:00:54;;;;;;;50.60;47.47;;;;;;;5.92;100.00;100803.50;5036044;28;20061;-85
2022/11/25 03:03:22;;;;;;;43.47;40.65;;;;;;;5.76;100.00;100799.13;5036280;28;20053;-84
2022/11/25 03:05:49;;;;;;;50.53;47.15;;;;;;;6.04;100.00;100812.69;5034146;28;20123;-86
2022/11/25 03:08:15;;;;;;;51.90;48.60;;;;;;;6.05;100.00;100806.44;5021512;28;20046;-85
2022/11/25 03:10:43;;;;;;;52.75;49.55;;;;;;;5.84;100.00;100806.16;5030217;28;20524;-85
2022/11/25 03:13:10;;;;;;;47.55;44.35;;;;;;;5.88;100.00;100810.94;5030113;28;20069;-85
2022/11/25 03:15:38;;;;;;;51.63;47.90;;;;;;;5.85;100.00;100805.19;5030630;28;20046;-84
2022/11/25 03:18:05;;;;;;;57.00;53.15;;;;;;;5.84;100.00;100821.97;5025023;28;20054;-85
2022/11/25 03:20:34;;;;;;;61.60;57.60;;;;;;;5.85;100.00;100821.00;5037385;28;20042;-85
2022/11/25 03:23:00;;;;;;;58.78;54.72;;;;;;;5.85;100.00;100821.81;5032381;28;20046;-84
2022/11/25 03:25:28;;;;;;;65.82;61.45;;;;;;;6.13;100.00;100824.00;5028663;28;20188;-84
2022/11/25 03:27:54;;;;;;;58.80;54.95;;;;;;;5.96;100.00;100818.84;5033474;28;20037;-85
2022/11/25 03:30:24;;;;;;;55.88;51.97;;;;;;;5.97;100.00;100827.56;5032624;28;20143;-85
2022/11/25 03:32:52;;;;;;;50.30;46.67;;;;;;;5.91;100.00;100826.41;5035010;28;20516;-86
2022/11/25 03:35:18;;;;;;;51.35;48.03;;;;;;;6.10;100.00;100830.44;5036326;28;20049;-85
2022/11/25 03:37:45;;;;;;;54.10;50.28;;;;;;;5.89;100.00;100835.47;5032785;28;20111;-84
2022/11/25 03:40:14;;;;;;;51.78;47.90;;;;;;;6.04;100.00;100836.41;5035804;28;20064;-84
2022/11/25 03:42:41;;;;;;;52.63;49.22;;;;;;;6.16;100.00;100836.84;5033635;28;20056;-86
2022/11/25 03:45:11;;;;;;;50.95;46.80;;;;;;;6.01;100.00;100842.03;5029353;28;20152;-84
2022/11/25 03:47:45;;;;;;;45.95;42.63;;;;;;;5.84;100.00;100833.38;5035677;28;20612;-84
2022/11/25 03:50:15;;;;;;;47.72;44.50;;;;;;;5.80;100.00;100831.25;5034229;28;20054;-86
2022/11/25 03:52:42;;;;;;;48.35;44.95;;;;;;;5.83;100.00;100831.72;5031738;28;20045;-85
2022/11/25 03:55:11;;;;;;;47.47;44.28;;;;;;;6.29;100.00;100831.00;5034123;28;20065;-86
2022/11/25 03:57:38;;;;;;;45.05;41.95;;;;;;;6.70;100.00;100830.72;5030822;28;20576;-86
2022/11/25 04:00:06;;;;;;;46.45;43.35;;;;;;;6.15;100.00;100833.41;5031266;28;20466;-85
2022/11/25 04:02:33;;;;;;;47.78;44.90;;;;;;;6.91;100.00;100836.13;5033285;28;20049;-86
2022/11/25 04:05:01;;;;;;;53.15;50.05;;;;;;;7.27;100.00;100832.81;5028628;28;20444;-86
2022/11/25 04:07:30;;;;;;;55.45;51.88;;;;;;;6.10;100.00;100834.91;5023545;28;20053;-85
2022/11/25 04:09:57;;;;;;;48.88;45.33;;;;;;;6.00;100.00;100835.13;5029197;28;20458;-87
2022/11/25 04:15:08;;;;;;;57.55;53.85;;;;;;;6.23;100.00;100856.25;5028758;28;20418;-86
2022/11/25 04:17:35;;;;;;;51.60;48.28;;;;;;;5.91;100.00;100855.41;5034441;28;20045;-86
2022/11/25 04:20:02;;;;;;;50.25;46.92;;;;;;;5.90;100.00;100850.28;5035510;28;20111;-84
2022/11/25 04:22:30;;;;;;;48.75;45.35;;;;;;;6.03;100.00;100855.88;5032602;28;20417;-86
2022/11/25 04:24:57;;;;;;;58.05;54.45;;;;;;;5.85;100.00;100858.72;5028789;28;20046;-84
2022/11/25 04:27:23;;;;;;;58.03;53.97;;;;;;;5.92;100.00;100864.94;5033787;28;20054;-85
2022/11/25 04:29:50;;;;;;;53.35;49.53;;;;;;;5.93;100.00;100865.78;5030188;28;20076;-84
2022/11/25 04:32:17;;;;;;;66.25;61.83;;;;;;;5.76;100.00;100869.47;5026138;28;21226;-86
2022/11/25 04:34:43;;;;;;;57.15;53.38;;;;;;;6.16;100.00;100876.41;5031512;28;20467;-87
2022/11/25 04:37:10;;;;;;;60.35;56.55;;;;;;;6.51;100.00;100871.59;5028899;28;20057;-86
2022/11/25 04:39:39;;;;;;;55.15;51.13;;;;;;;5.87;100.00;100874.34;5032336;28;20041;-87
2022/11/25 04:44:50;;;;;;;48.35;44.65;;;;;;;6.09;100.00;100889.47;5028393;28;20053;-85
2022/11/25 04:47:17;;;;;;;56.28;52.10;;;;;;;6.08;100.00;100887.00;5033254;28;20281;-84
2022/11/25 04:49:43;;;;;;;46.38;43.45;;;;;;;5.93;100.00;100886.88;5031891;28;20065;-85
2022/11/25 04:52:10;;;;;;;48.92;45.65;;;;;;;6.14;100.00;100899.50;5031442;28;20547;-85
2022/11/25 04:54:37;;;;;;;51.33;47.53;;;;;;;6.01;100.00;100901.88;5029343;28;20108;-85
2022/11/25 04:57:05;;;;;;;46.97;43.58;;;;;;;5.72;100.00;100903.28;5032482;28;20123;-86
2022/11/25 04:59:41;;;;;;;43.88;40.60;;;;;;;5.89;100.00;100912.75;5034125;28;20412;-85
2022/11/25 05:02:13;;;;;;;45.95;42.45;;;;;;;5.82;100.00;100905.69;5030266;28;20127;-84
2022/11/25 05:04:41;;;;;;;46.05;42.85;;;;;;;5.88;100.00;100918.22;5025795;28;20132;-84
2022/11/25 05:07:08;;;;;;;46.22;42.75;;;;;;;5.73;100.00;100915.44;5029870;28;20114;-84
2022/11/25 05:09:35;;;;;;;44.08;41.05;;;;;;;5.77;100.00;100916.75;5026845;28;20053;-85
2022/11/25 05:12:02;;;;;;;42.53;39.42;;;;;;;5.74;100.00;100920.53;5028849;28;20045;-84
2022/11/25 05:14:30;;;;;;;49.80;46.20;;;;;;;6.23;100.00;100931.94;5030624;28;20045;-83
2022/11/25 05:16:57;;;;;;;48.78;45.38;;;;;;;5.94;100.00;100933.38;5030248;28;20425;-86
2022/11/25 05:19:24;;;;;;;46.97;43.47;;;;;;;6.07;100.00;100935.47;5034715;28;20106;-85
2022/11/25 05:21:50;;;;;;;48.45;44.95;;;;;;;6.10;100.00;100945.66;5030781;28;20038;-86
2022/11/25 05:24:17;;;;;;;48.95;45.53;;;;;;;5.90;100.00;100945.19;5031855;28;20076;-84
2022/11/25 05:26:44;;;;;;;45.55;42.33;;;;;;;5.73;100.00;100939.97;5026681;28;20111;-86
2022/11/25 05:29:11;;;;;;;45.63;42.50;;;;;;;5.69;100.00;100936.06;5033696;28;20057;-85
2022/11/25 05:31:39;;;;;;;45.83;42.83;;;;;;;6.04;100.00;100946.34;5029525;28;20045;-86
2022/11/25 05:34:06;;;;;;;47.90;44.72;;;;;;;6.44;100.00;100945.34;5029979;28;20120;-86
2022/11/25 05:36:32;;;;;;;46.17;43.10;;;;;;;6.12;100.00;100951.59;5032267;28;20049;-85
2022/11/25 05:39:00;;;;;;;45.95;42.95;;;;;;;6.25;100.00;100962.41;5024913;28;20109;-86
2022/11/25 05:41:27;;;;;;;43.70;40.70;;;;;;;6.11;100.00;100966.63;5030339;28;20053;-86
2022/11/25 05:43:54;;;;;;;41.90;39.00;;;;;;;5.99;100.00;100964.50;5032409;28;20489;-85
2022/11/25 05:46:22;;;;;;;41.53;38.45;;;;;;;5.99;100.00;100962.69;5029192;28;20048;-86
2022/11/25 05:48:53;;;;;;;43.60;40.50;;;;;;;5.97;100.00;100973.41;5032293;28;20543;-84
2022/11/25 05:51:20;;;;;;;43.65;40.65;;;;;;;6.04;100.00;100981.44;5032699;28;20068;-86
2022/11/25 05:53:46;;;;;;;44.00;40.97;;;;;;;6.61;100.00;100985.66;5032174;28;20042;-86
2022/11/25 05:56:13;;;;;;;48.65;45.40;;;;;;;6.18;100.00;100983.38;5026584;28;20057;-85
2022/11/25 05:58:40;;;;;;;48.13;44.78;;;;;;;6.17;100.00;100991.47;5028361;28;20532;-85
2022/11/25 06:01:08;;;;;;;43.85;40.55;;;;;;;6.06;100.00;100991.84;5027792;28;20526;-86
2022/11/25 06:03:35;;;;;;;45.47;42.38;;;;;;;5.88;100.00;101002.56;5028579;28;20107;-87
2022/11/25 06:06:04;;;;;;;48.58;45.10;;;;;;;6.12;100.00;101009.63;5033917;28;20049;-86
2022/11/25 06:08:32;;;;;;;46.75;43.42;;;;;;;6.01;100.00;101017.88;5031705;28;20045;-86
2022/11/25 06:10:58;;;;;;;55.17;51.42;;;;;;;5.92;100.00;101017.88;5027808;28;20038;-86
2022/11/25 06:13:26;;;;;;;50.20;46.85;;;;;;;6.20;100.00;101020.13;5027396;28;20057;-85
2022/11/25 06:15:53;;;;;;;52.95;49.33;;;;;;;5.96;100.00;101024.50;5018324;28;20046;-86
2022/11/25 06:18:20;;;;;;;50.65;47.25;;;;;;;6.03;100.00;101040.47;5030547;28;20045;-85
2022/11/25 06:20:56;;;;;;;48.50;45.20;;;;;;;6.07;100.00;101038.31;5026342;28;20506;-85
2022/11/25 06:23:24;;;;;;;44.55;41.25;;;;;;;6.27;100.00;101041.41;5029704;28;20468;-85
2022/11/25 06:25:51;;;;;;;47.25;44.08;;;;;;;6.04;100.00;101049.19;5024584;28;20045;-84
2022/11/25 06:28:17;;;;;;;47.40;44.17;;;;;;;5.88;100.00;101045.56;5030060;28;20049;-85
2022/11/25 06:30:44;;;;;;;47.25;44.00;;;;;;;5.72;100.00;101050.88;5026975;28;20057;-85
2022/11/25 06:33:11;;;;;;;43.72;40.67;;;;;;;5.90;100.00;101048.00;5026748;28;20131;-84
2022/11/25 06:35:38;;;;;;;45.05;41.75;;;;;;;5.73;100.00;101058.59;5028278;28;20052;-86
2022/11/25 06:38:04;;;;;;;48.50;45.20;;;;;;;5.84;100.00;101046.91;5024050;28;20053;-85
2022/11/25 06:40:33;;;;;;;47.22;44.08;;;;;;;5.92;100.00;101052.13;5026069;28;20458;-85
2022/11/25 06:42:59;;;;;;;46.58;43.03;;;;;;;5.90;100.00;101055.94;5029966;28;20060;-85
2022/11/25 06:45:26;;;;;;;45.97;42.92;;;;;;;6.04;100.00;101054.47;5026427;28;20397;-85
2022/11/25 06:47:53;;;;;;;52.60;49.13;;;;;;;6.14;100.00;101060.38;5026236;28;20045;-85
2022/11/25 06:50:20;;;;;;;56.28;52.58;;;;;;;6.03;100.00;101052.84;5029771;28;20049;-84
2022/11/25 06:52:46;;;;;;;56.15;52.40;;;;;;;5.94;100.00;101052.03;5028919;28;20389;-85
2022/11/25 06:55:13;;;;;;;47.63;44.33;;;;;;;6.31;100.00;101055.88;5026005;28;20085;-85
2022/11/25 06:57:42;;;;;;;47.47;44.58;;;;;;;6.36;100.00;101054.38;5029683;28;20375;-85
2022/11/25 07:00:09;;;;;;;51.85;48.30;;;;;;;6.40;100.00;101058.31;5029509;28;20123;-86
2022/11/25 07:02:36;;;;;;;49.30;45.90;;;;;;;6.23;100.00;101059.34;5028405;28;20053;-85
2022/11/25 07:05:03;;;;;;;45.67;42.58;;;;;;;6.45;100.00;101065.75;5030169;28;20548;-86
2022/11/25 07:07:29;;;;;;;50.33;47.10;;;;;;;6.57;100.00;101060.91;5022089;28;20045;-84
2022/11/25 07:09:56;;;;;;;46.25;43.08;;;;;;;6.18;100.00;101062.50;5029062;28;20540;-85
2022/11/25 07:12:23;;;;;;;50.45;47.25;;;;;;;6.28;100.00;101072.88;5027780;28;20386;-85
2022/11/25 07:14:51;;;;;;;41.63;39.03;;;;;;;6.47;100.00;101074.28;5026389;28;20045;-85
2022/11/25 07:17:18;;;;;;;44.40;41.53;;;;;;;6.27;100.00;101084.44;5028921;28;20429;-85
2022/11/25 07:19:45;;;;;;;48.78;45.67;;;;;;;6.15;100.00;101086.59;5029643;28;20054;-86
2022/11/25 07:22:11;;;;;;;48.33;45.33;;;;;;;6.22;100.00;101084.09;5022869;28;20053;-84
2022/11/25 07:24:38;;;;;;;43.58;40.55;;;;;;;6.04;100.00;101094.03;5020599;28;20057;-85
2022/11/25 07:27:05;;;;;;;43.55;40.65;;;;;;;6.26;100.00;101101.22;5052379;28;20056;-86
2022/11/25 07:29:34;;;;;;;48.53;45.28;;;;;;;6.10;100.00;101107.34;5051486;28;20067;-85
2022/11/25 07:32:02;;;;;;;48.15;45.08;;;;;;;6.32;100.00;101097.09;5045222;28;20064;-87
2022/11/25 07:34:29;;;;;;;49.05;45.88;;;;;;;6.01;100.00;101107.53;5050332;28;20060;-85
2022/11/25 07:36:55;;;;;;;48.70;45.40;;;;;;;5.82;100.00;101108.69;5051848;28;20111;-86
2022/11/25 07:39:23;;;;;;;49.53;46.03;;;;;;;6.13;100.00;101112.31;5042611;28;20044;-84
2022/11/25 07:41:51;;;;;;;47.53;44.22;;;;;;;6.13;100.00;101120.22;5050785;28;20056;-84
2022/11/25 07:44:18;;;;;;;47.72;44.42;;;;;;;6.26;100.00;101124.16;5050445;28;20052;-85
2022/11/25 07:46:47;;;;;;;46.85;43.72;;;;;;;6.71;100.00;101125.34;5050933;28;20044;-86
2022/11/25 07:49:17;;;;;;;49.97;46.70;;;;;;;6.19;100.00;101129.28;5056006;28;20393;-85
2022/11/25 07:51:48;;;;;;;48.13;44.83;;;;;;;6.36;100.00;101130.09;5051682;28;20053;-86
2022/11/25 07:54:15;;;;;;;46.67;43.63;;;;;;;6.49;100.00;101121.63;5050222;28;20363;-85
2022/11/25 07:56:44;;;;;;;48.80;45.63;;;;;;;6.75;100.00;101129.31;5051534;28;20110;-85
2022/11/25 07:59:14;;;;;;;50.28;47.08;;;;;;;6.48;100.00;101133.19;5050685;28;20084;-86
2022/11/25 08:01:41;;;;;;;46.65;43.35;;;;;;;6.51;100.00;101124.94;4983063;28;20079;-84
2022/11/25 08:04:11;;;;;;;43.80;40.72;;;;;;;6.99;100.00;101128.38;5044427;28;20050;-84
2022/11/25 08:06:41;;;;;;;44.33;41.38;;;;;;;6.83;100.00;101132.72;5052966;28;20049;-85
2022/11/25 08:09:18;;;;;;;49.55;46.13;;;;;;;6.96;100.00;101136.63;5051177;28;20053;-84
2022/11/25 08:11:45;;;;;;;42.42;39.53;;;;;;;6.91;100.00;101139.81;5051407;28;20055;-84
2022/11/25 08:14:13;;;;;;;43.80;40.80;;;;;;;7.22;100.00;101139.00;5057514;28;20052;-87
2022/11/25 08:16:41;;;;;;;47.45;44.45;;;;;;;7.72;100.00;101151.75;5069427;28;20052;-87
2022/11/25 08:19:13;;;;;;;45.30;42.47;;;;;;;7.41;100.00;101145.66;5055536;28;20041;-86
2022/11/25 08:21:42;;;;;;;43.80;40.73;;;;;;;7.61;100.00;101146.84;5051279;28;20107;-86
2022/11/25 08:24:13;;;;;;;40.45;37.85;;;;;;;7.31;100.00;101151.97;5044347;28;20496;-85
2022/11/25 08:26:39;;;;;;;40.53;37.72;;;;;;;7.11;100.00;101153.44;5042935;28;20532;-85
2022/11/25 08:29:08;;;;;;;40.70;38.15;;;;;;;6.80;100.00;101162.13;5050205;28;20444;-85
2022/11/25 08:31:37;;;;;;;40.60;37.83;;;;;;;7.22;100.00;101163.59;5049375;28;20132;-85
2022/11/25 08:34:05;;;;;;;42.95;40.00;;;;;;;7.12;100.00;101163.00;5046091;28;20405;-86
2022/11/25 08:36:34;;;;;;;41.15;38.30;;;;;;;7.55;100.00;101168.69;5049005;28;20049;-84
2022/11/25 08:39:05;;;;;;;42.25;39.45;;;;;;;8.54;100.00;101166.94;5050437;28;20053;-87
2022/11/25 08:41:33;;;;;;;67.85;60.83;;;;;;;8.65;100.00;101163.00;5052041;28;20064;-85
2022/11/25 08:44:02;;;;;;;40.47;37.88;;;;;;;8.11;100.00;101168.44;5052963;28;20044;-85
2022/11/25 08:46:38;;;;;;;46.15;42.97;;;;;;;7.66;100.00;101167.50;5046610;28;20045;-85
2022/11/25 08:49:16;;;;;;;44.33;41.40;;;;;;;8.37;100.00;101163.59;5053775;28;20405;-85
2022/11/25 08:51:43;;;;;;;42.38;39.58;;;;;;;8.16;100.00;101169.56;5055163;28;20045;-84
2022/11/25 08:54:11;;;;;;;42.78;40.13;;;;;;;9.78;100.00;101169.66;5053194;28;20057;-85
2022/11/25 08:56:39;;;;;;;45.05;42.15;;;;;;;8.62;100.00;101160.72;5054072;28;20439;-86
2022/11/25 08:59:06;;;;;;;45.13;42.17;;;;;;;8.53;100.00;101172.38;5055656;28;20111;-83
2022/11/25 09:01:33;;;;;;;43.15;40.45;;;;;;;7.97;100.00;101162.13;5048002;28;20048;-82
2022/11/25 09:04:00;;;;;;;50.03;46.83;;;;;;;7.71;100.00;101160.66;5046657;28;20448;-83
2022/11/25 09:06:28;;;;;;;44.63;41.80;;;;;;;7.63;100.00;101167.84;5054953;28;20048;-86
2022/11/25 09:08:57;;;;;;;44.85;41.42;;;;;;;7.94;100.00;101171.25;5049884;28;20053;-85
2022/11/25 09:11:25;;;;;;;45.10;42.22;;;;;;;9.05;100.00;101168.84;5051783;28;20130;-83
2022/11/25 09:13:52;;;;;;;48.85;45.75;;;;;;;8.43;100.00;101175.31;5049031;28;20044;-83
2022/11/25 09:16:19;;;;;;;46.90;43.90;;;;;;;7.68;100.00;101184.81;5055689;28;20053;-85
2022/11/25 09:18:46;;;;;;;47.45;44.45;;;;;;;8.09;100.00;101179.22;5052494;28;20121;-84
2022/11/25 09:21:16;;;;;;;42.05;39.35;;;;;;;7.79;100.00;101179.13;5054348;28;20067;-87
2022/11/25 09:23:43;;;;;;;46.75;43.85;;;;;;;7.78;100.00;101174.84;5055340;28;20045;-85
2022/11/25 09:26:20;;;;;;;45.20;42.22;;;;;;;8.12;100.00;101178.88;5051909;28;20094;-83
2022/11/25 09:28:49;;;;;;;41.97;39.13;;;;;;;7.63;100.00;101168.66;5054150;28;20049;-84
2022/11/25 09:31:16;;;;;;;50.20;47.05;;;;;;;7.63;100.00;101173.94;5056030;28;20081;-84
2022/11/25 09:33:43;;;;;;;44.00;41.05;;;;;;;7.57;100.00;101175.47;5054429;28;20045;-86
2022/11/25 09:36:11;;;;;;;43.75;41.03;;;;;;;8.24;100.00;101173.97;5052855;28;20041;-83
2022/11/25 09:38:38;;;;;;;45.63;42.80;;;;;;;8.24;100.00;101181.91;5046832;28;20045;-86
2022/11/25 09:41:09;;;;;;;46.70;43.63;;;;;;;7.91;100.00;101179.53;5052669;28;20106;-85
2022/11/25 09:46:53;;;;;;;42.72;40.13;;;;;;;8.03;100.00;101178.09;4996935;28;20457;-84
2022/11/25 09:49:34;;;;;;;44.63;41.97;;;;;;;8.01;100.00;101182.75;5049821;28;20107;-86
2022/11/25 09:52:13;;;;;;;45.72;42.63;;;;;;;7.88;100.00;101179.88;5038655;28;20103;-85
2022/11/25 09:54:44;;;;;;;42.67;40.08;;;;;;;8.05;100.00;101180.59;5046987;28;20132;-86
2022/11/25 09:57:21;;;;;;;44.25;41.55;;;;;;;7.96;100.00;101186.94;5042673;28;20060;-86
2022/11/25 09:59:58;;;;;;;46.20;43.42;;;;;;;8.63;100.00;101180.91;5027493;28;20121;-85
2022/11/25 10:02:33;;;;;;;46.22;43.20;;;;;;;8.67;100.00;101177.69;5045084;28;20057;-85
2022/11/25 10:05:05;;;;;;;47.55;44.58;;;;;;;8.57;100.00;101174.50;5043066;28;20047;-86
2022/11/25 10:07:38;;;;;;;56.28;52.88;;;;;;;8.40;100.00;101179.13;5038674;28;20410;-85
2022/11/25 10:10:05;;;;;;;;;;;;;;;8.27;100.00;101176.25;5048143;28;20053;-86
2022/11/25 10:12:37;;;;;;;45.47;42.63;;;;;;;8.44;100.00;101177.78;5044410;28;19991;-85
2022/11/25 10:15:13;;;;;;;47.38;44.30;;;;;;;8.38;100.00;101174.97;5049789;28;20056;-85
2022/11/25 10:17:48;;;;;;;50.97;47.53;;;;;;;8.27;100.00;101174.44;5049517;28;20057;-87
2022/11/25 10:20:19;;;;;;;51.30;48.08;;;;;;;7.98;100.00;101171.69;5051161;28;20057;-86
2022/11/25 10:22:49;;;;;;;45.63;42.20;;;;;;;8.00;100.00;101177.66;5049670;28;20103;-85
2022/11/25 10:25:20;;;;;;;47.13;44.08;;;;;;;7.94;100.00;101173.88;5045494;28;20308;-85
2022/11/25 10:27:52;;;;;;;45.38;42.17;;;;;;;8.44;100.00;101179.59;5038422;28;20055;-86
2022/11/25 10:30:22;;;;;;;44.40;41.47;;;;;;;8.55;100.00;101173.84;5041663;28;20135;-86
2022/11/25 10:32:53;;;;;;;46.05;42.97;;;;;;;8.83;100.00;101168.75;5049054;28;20472;-85
2022/11/25 10:35:29;;;;;;;49.25;46.00;;;;;;;9.03;100.00;101173.50;5039536;28;20045;-86
2022/11/25 10:38:00;;;;;;;45.85;42.70;;;;;;;9.22;100.00;101169.44;5048633;28;20113;-86
2022/11/25 10:40:27;;;;;;;45.65;42.92;;;;;;;11.45;100.00;101162.53;5048292;28;20052;-85
2022/11/25 10:42:53;;;;;;;41.80;39.47;;;;;;;11.25;100.00;101156.31;5041322;28;20107;-84
2022/11/25 10:45:28;;;;;;;48.08;45.28;;;;;;;11.26;100.00;101159.81;5045742;28;20110;-88
2022/11/25 10:48:17;;;;;;;46.67;43.75;;;;;;;10.17;100.00;101165.72;5047176;28;20045;-83
2022/11/25 10:51:00;;;;;;;45.42;42.60;;;;;;;10.22;100.00;101169.41;5051628;28;20048;-86
2022/11/25 10:53:33;;;;;;;;;;;;;;;10.37;100.00;101171.19;5045030;28;20041;-86
2022/11/25 10:56:02;;;;;;;48.72;45.88;;;;;;;9.77;100.00;101178.59;5053224;28;20385;-85
2022/11/25 10:58:34;;;;;;;44.80;41.97;;;;;;;10.34;100.00;101166.25;5050301;28;20072;-86
2022/11/25 11:01:12;;;;;;;48.00;44.78;;;;;;;10.05;100.00;101170.72;5054532;28;20056;-84
2022/11/25 11:03:43;;;;;;;50.15;47.35;;;;;;;10.63;100.00;101168.72;5050279;28;20048;-84
2022/11/25 11:06:30;;;;;;;51.17;48.17;;;;;;;10.78;100.00;101173.91;5046684;28;20544;-85
2022/11/25 11:08:57;;;;;;;46.92;43.92;;;;;;;10.44;100.00;101172.03;5047527;28;20072;-85
2022/11/25 11:11:24;;;;;;;45.40;42.28;;;;;;;11.03;100.00;101163.59;5051823;28;20041;-85
2022/11/25 11:14:00;;;;;;;53.13;49.75;;;;;;;9.90;100.00;101170.78;5058392;28;20071;-86
2022/11/25 11:16:31;;;;;;;48.25;45.10;;;;;;;9.72;100.00;101170.41;5049573;28;20077;-87
2022/11/25 11:19:23;;;;;;;47.45;44.45;;;;;;;9.92;100.00;101173.22;5058060;28;20052;-86
2022/11/25 11:21:53;;;;;;;51.40;48.00;;;;;;;9.77;100.00;101183.91;5052997;28;20044;-85
2022/11/25 11:24:27;;;;;;;52.38;48.40;;;;;;;10.08;100.00;101179.09;5050161;28;20053;-86
2022/11/25 11:27:06;;;;;;;46.85;43.60;;;;;;;9.14;100.00;101176.50;5053332;28;20378;-87
2022/11/25 11:29:34;;;;;;;45.90;42.70;;;;;;;9.14;100.00;101167.75;5060474;28;20044;-84
2022/11/25 11:32:04;;;;;;;48.85;45.58;;;;;;;9.27;100.00;101170.53;5053159;28;20053;-86